CheckWX is a tool to help pilots better visualize weather data.  It is not intended as a substitute for an official pre-flight weather briefing.

18:01:37 UTC

KPVU TAF
Provo Municipal Airport
Provo, Utah, USA
KPVU 171750Z 1718/1818 16006KT P6SM VCSH SCT030 BKN060 FM172200 24006KT 2SM -SN BR BKN015 OVC025 FM180200 31008KT P6SM VCSH BKN060 OVC100 FM181700 32006KT P6SM BKN070 BKN120

Feb-17@
18:00 UTC

Feb-17 @ 18:00 UTC

Feb-17@
22:00 UTC

Feb-17 @ 22:00 UTC

KPVU 171750Z 1718/1818 16006KT P6SM VCSH SCT030 BKN060
Wind
  • 160° at 6 KTS
Visibility
Greater than 6 SM
Cloud Levels
  • Scattered at 3,000' AGL
  • Broken at 6,000' AGL

Feb-17@
22:00 UTC

Feb-17 @ 22:00 UTC

Feb-18@
02:00 UTC

Feb-18 @ 02:00 UTC

FM172200 24006KT 2SM -SN BR BKN015 OVC025

From

FromStandard forecast or significant change

Wind
  • 240° at 6 KTS
Visibility
2 SM
Conditions
Light Snow, Mist
Cloud Levels
  • Broken at 1,500' AGL
  • Overcast at 2,500' AGL

Feb-18@
02:00 UTC

Feb-18 @ 02:00 UTC

Feb-18@
17:00 UTC

Feb-18 @ 17:00 UTC

FM180200 31008KT P6SM VCSH BKN060 OVC100

From

FromStandard forecast or significant change

Wind
  • 310° at 8 KTS
Visibility
Greater than 6 SM
Cloud Levels
  • Broken at 6,000' AGL
  • Overcast at 10,000' AGL

Feb-18@
17:00 UTC

Feb-18 @ 17:00 UTC

Feb-18@
18:00 UTC

Feb-18 @ 18:00 UTC

FM181700 32006KT P6SM BKN070 BKN120

From

FromStandard forecast or significant change

Wind
  • 320° at 6 KTS
Visibility
Greater than 6 SM
Cloud Levels
  • Broken at 7,000' AGL
  • Broken at 12,000' AGL